createdAt,value
2018-07-20T00:00:43.157Z,17.34
2018-07-20T00:01:43.334Z,17.20
2018-07-20T00:02:43.512Z,17.04
2018-07-20T00:03:43.697Z,17.11
2018-07-20T00:04:43.878Z,17.04
2018-07-20T00:05:44.062Z,17.09
2018-07-20T00:06:44.246Z,17.08
2018-07-20T00:07:44.418Z,17.06
2018-07-20T00:08:44.603Z,17.14
2018-07-20T00:09:44.788Z,17.06
2018-07-20T00:10:44.965Z,17.05
2018-07-20T00:11:45.140Z,17.06
2018-07-20T00:12:45.321Z,17.11
2018-07-20T00:13:45.497Z,17.11
2018-07-20T00:14:45.678Z,17.08
2018-07-20T00:15:45.866Z,16.97
2018-07-20T00:16:46.129Z,17.02
2018-07-20T00:17:46.213Z,16.97
2018-07-20T00:18:46.390Z,17.06
2018-07-20T00:19:46.570Z,16.97
2018-07-20T00:20:46.768Z,17.04
2018-07-20T00:21:46.927Z,17.05
2018-07-20T00:22:47.110Z,16.96
2018-07-20T00:23:47.291Z,16.96
2018-07-20T00:24:47.475Z,16.94
2018-07-20T00:25:47.664Z,16.86
2018-07-20T00:26:47.845Z,16.84
2018-07-20T00:27:48.028Z,16.84
2018-07-20T00:28:48.213Z,16.94
2018-07-20T00:29:48.400Z,16.83
2018-07-20T00:30:48.569Z,16.76
2018-07-20T00:31:48.746Z,16.79
2018-07-20T00:32:48.927Z,16.74
2018-07-20T00:33:49.107Z,16.79
2018-07-20T00:34:49.289Z,16.64
2018-07-20T00:35:49.474Z,16.68
2018-07-20T00:36:49.651Z,16.60
2018-07-20T00:37:49.833Z,16.64
2018-07-20T00:38:50.014Z,16.69
2018-07-20T00:39:50.442Z,16.68
2018-07-20T00:40:50.376Z,16.71
2018-07-20T00:41:50.556Z,16.68
2018-07-20T00:42:50.731Z,16.68
2018-07-20T00:43:50.924Z,16.81
2018-07-20T00:44:51.099Z,16.72
2018-07-20T00:45:51.287Z,16.78
2018-07-20T00:46:51.463Z,16.72
2018-07-20T00:47:51.641Z,16.72
2018-07-20T00:48:51.823Z,16.71
2018-07-20T00:49:52.007Z,16.64
2018-07-20T00:50:52.185Z,16.64
2018-07-20T00:51:52.364Z,16.72
2018-07-20T00:52:52.545Z,16.68
2018-07-20T00:53:52.719Z,16.71
2018-07-20T00:54:52.900Z,16.58
2018-07-20T00:55:53.074Z,16.60
2018-07-20T00:56:53.261Z,16.50
2018-07-20T00:57:53.441Z,16.47
2018-07-20T00:58:53.621Z,16.42
2018-07-20T00:59:53.805Z,16.47
2018-07-20T01:00:53.993Z,16.54
2018-07-20T01:01:54.176Z,16.60
2018-07-20T01:02:54.355Z,16.57
2018-07-20T01:03:54.528Z,16.54
2018-07-20T01:04:54.709Z,16.51
2018-07-20T01:05:54.883Z,16.54
2018-07-20T01:06:55.073Z,16.50
2018-07-20T01:07:55.251Z,16.50
2018-07-20T01:08:55.434Z,16.49
2018-07-20T01:09:55.621Z,16.47
2018-07-20T01:10:55.813Z,16.47
2018-07-20T01:11:55.981Z,16.47
2018-07-20T01:12:56.163Z,16.42
2018-07-20T01:13:56.344Z,16.51
2018-07-20T01:14:56.520Z,16.46
2018-07-20T01:15:56.700Z,16.49
2018-07-20T01:16:56.885Z,16.42
2018-07-20T01:17:57.060Z,16.46
2018-07-20T01:18:57.233Z,16.38
2018-07-20T01:19:57.423Z,16.41
2018-07-20T01:20:57.608Z,16.50
2018-07-20T01:21:57.790Z,16.42
2018-07-20T01:22:57.975Z,16.42
2018-07-20T01:23:58.143Z,16.35
2018-07-20T01:24:58.324Z,16.33
2018-07-20T01:25:58.504Z,16.36
2018-07-20T01:26:58.683Z,16.20
2018-07-20T01:27:58.865Z,16.33
2018-07-20T01:28:59.047Z,16.09
2018-07-20T01:29:59.239Z,16.16
2018-07-20T01:30:59.412Z,15.98
2018-07-20T01:31:59.587Z,16.04
2018-07-20T01:32:59.766Z,15.84
2018-07-20T01:33:59.956Z,15.94
2018-07-20T01:35:00.129Z,15.82
2018-07-20T01:36:00.308Z,15.82
2018-07-20T01:37:00.491Z,15.79
2018-07-20T01:38:00.671Z,15.76
2018-07-20T01:39:00.849Z,15.77
2018-07-20T01:40:01.032Z,15.73
2018-07-20T01:41:01.207Z,15.79
2018-07-20T01:42:01.381Z,15.76
2018-07-20T01:43:01.574Z,15.70
2018-07-20T01:44:01.748Z,15.73
2018-07-20T01:45:01.933Z,15.76
2018-07-20T01:46:02.111Z,15.83
2018-07-20T01:47:02.290Z,15.80
2018-07-20T01:48:02.480Z,15.83
2018-07-20T01:49:02.652Z,15.86
2018-07-20T01:50:02.843Z,15.80
2018-07-20T01:51:03.012Z,15.70
2018-07-20T01:52:03.191Z,15.77
2018-07-20T01:53:03.376Z,15.75
2018-07-20T01:54:03.554Z,15.73
2018-07-20T01:55:03.737Z,15.77
2018-07-20T01:56:03.920Z,15.67
2018-07-20T01:57:04.096Z,15.64
2018-07-20T01:58:04.278Z,15.65
2018-07-20T01:59:04.458Z,15.67
2018-07-20T02:00:04.647Z,15.67
2018-07-20T02:01:04.817Z,15.64
2018-07-20T02:02:04.998Z,15.51
2018-07-20T02:03:05.186Z,15.52
2018-07-20T02:04:05.364Z,15.54
2018-07-20T02:05:05.544Z,15.54
2018-07-20T02:06:05.736Z,15.51
2018-07-20T02:07:05.905Z,15.42
2018-07-20T02:09:06.260Z,15.44
2018-07-20T02:10:06.444Z,15.44
2018-07-20T02:11:06.624Z,15.37
2018-07-20T02:12:06.805Z,15.43
2018-07-20T02:13:06.982Z,15.39
2018-07-20T02:14:07.171Z,15.43
2018-07-20T02:15:07.343Z,15.49
2018-07-20T02:16:07.528Z,15.46
2018-07-20T02:17:07.723Z,15.42
2018-07-20T02:18:07.895Z,15.51
2018-07-20T02:19:08.076Z,15.64
2018-07-20T02:20:08.264Z,15.65
2018-07-20T02:21:08.441Z,15.68
2018-07-20T02:22:08.622Z,15.70
2018-07-20T02:23:08.839Z,15.59
2018-07-20T02:24:08.981Z,15.65
2018-07-20T02:25:09.155Z,15.67
2018-07-20T02:26:09.335Z,15.64
2018-07-20T02:27:09.519Z,15.68
2018-07-20T02:28:09.696Z,15.52
2018-07-20T02:29:09.876Z,15.46
2018-07-20T02:30:10.055Z,15.55
2018-07-20T02:31:10.233Z,15.55
2018-07-20T02:32:10.423Z,15.62
2018-07-20T02:33:10.593Z,15.58
2018-07-20T02:34:10.773Z,15.54
2018-07-20T02:35:10.956Z,15.55
2018-07-20T02:36:11.139Z,15.51
2018-07-20T02:37:11.327Z,15.49
2018-07-20T02:38:11.499Z,15.57
2018-07-20T02:39:11.684Z,15.57
2018-07-20T02:40:11.863Z,15.51
2018-07-20T02:41:12.039Z,15.58
2018-07-20T02:43:12.396Z,15.51
2018-07-20T02:44:12.591Z,15.44
2018-07-20T02:45:12.762Z,15.40
2018-07-20T02:46:12.951Z,15.33
2018-07-20T02:47:13.117Z,15.31
2018-07-20T02:48:13.304Z,15.37
2018-07-20T02:49:13.797Z,15.44
2018-07-20T02:50:13.664Z,15.43
2018-07-20T02:51:13.839Z,15.46
2018-07-20T02:52:14.051Z,15.44
2018-07-20T02:53:14.190Z,15.28
2018-07-20T02:54:14.374Z,15.39
2018-07-20T02:55:14.551Z,15.37
2018-07-20T02:56:14.732Z,15.36
2018-07-20T02:57:14.912Z,15.44
2018-07-20T02:58:15.082Z,15.46
2018-07-20T02:59:15.263Z,15.54
2018-07-20T03:00:15.446Z,15.54
2018-07-20T03:01:15.621Z,15.59
2018-07-20T03:02:15.810Z,15.62
2018-07-20T03:03:15.976Z,15.42
2018-07-20T03:04:16.164Z,15.35
2018-07-20T03:05:16.351Z,15.43
2018-07-20T03:06:16.531Z,15.43
2018-07-20T03:07:16.723Z,15.29
2018-07-20T03:08:16.894Z,15.29
2018-07-20T03:09:17.072Z,15.36
2018-07-20T03:10:17.251Z,15.29
2018-07-20T03:11:17.435Z,15.37
2018-07-20T03:12:17.613Z,15.28
2018-07-20T03:13:17.795Z,15.33
2018-07-20T03:14:17.974Z,15.27
2018-07-20T03:15:18.160Z,15.27
2018-07-20T03:16:18.624Z,15.29
2018-07-20T03:17:18.515Z,15.28
2018-07-20T03:18:18.694Z,15.27
2018-07-20T03:19:18.878Z,15.18
2018-07-20T03:20:19.057Z,15.10
2018-07-20T03:21:19.235Z,15.00
2018-07-20T03:22:19.415Z,15.04
2018-07-20T03:23:19.596Z,15.09
2018-07-20T03:24:20.273Z,15.07
2018-07-20T03:25:19.938Z,14.91
2018-07-20T03:26:20.123Z,14.92
2018-07-20T03:27:20.318Z,14.85
2018-07-20T03:28:20.478Z,14.94
2018-07-20T03:29:20.661Z,15.03
2018-07-20T03:30:20.852Z,15.11
2018-07-20T03:31:21.023Z,15.04
2018-07-20T03:32:21.216Z,15.07
2018-07-20T03:33:21.395Z,15.04
2018-07-20T03:34:21.568Z,14.85
2018-07-20T03:35:21.747Z,14.65
2018-07-20T03:36:21.941Z,14.53
2018-07-20T03:37:22.111Z,14.59
2018-07-20T03:38:22.287Z,14.55
2018-07-20T03:39:22.467Z,14.63
2018-07-20T03:40:22.654Z,14.59
2018-07-20T03:41:22.819Z,14.47
2018-07-20T03:42:23.001Z,14.44
2018-07-20T03:43:23.173Z,14.47
2018-07-20T03:44:23.359Z,14.43
2018-07-20T03:45:23.522Z,14.45
2018-07-20T03:46:23.695Z,14.50
2018-07-20T03:47:23.923Z,14.66
2018-07-20T03:48:24.043Z,14.70
2018-07-20T03:49:24.224Z,14.81
2018-07-20T03:50:24.400Z,14.92
2018-07-20T03:51:24.582Z,15.03
2018-07-20T03:52:24.766Z,15.00
2018-07-20T03:53:24.941Z,14.96
2018-07-20T03:54:25.125Z,14.97
2018-07-20T03:55:25.297Z,14.99
2018-07-20T03:56:25.484Z,14.99
2018-07-20T03:57:25.668Z,14.97
2018-07-20T03:58:25.845Z,14.92
2018-07-20T03:59:26.025Z,15.02
2018-07-20T04:00:26.460Z,14.94
2018-07-20T04:01:26.367Z,15.11
2018-07-20T04:02:26.621Z,15.00
2018-07-20T04:03:26.868Z,15.06
2018-07-20T04:04:26.994Z,15.17
2018-07-20T04:05:27.162Z,15.17
2018-07-20T04:06:27.854Z,15.07
2018-07-20T04:07:27.661Z,15.17
2018-07-20T04:08:27.748Z,15.25
2018-07-20T04:09:27.922Z,15.21
2018-07-20T04:10:28.108Z,15.33
2018-07-20T04:11:28.289Z,15.35
2018-07-20T04:12:28.470Z,15.40
2018-07-20T04:13:28.657Z,15.51
2018-07-20T04:14:28.828Z,15.37
2018-07-20T04:15:29.011Z,15.54
2018-07-20T04:16:29.185Z,15.67
2018-07-20T04:17:29.370Z,15.62
2018-07-20T04:18:29.547Z,15.59
2018-07-20T04:19:29.726Z,15.70
2018-07-20T04:20:29.908Z,15.43
2018-07-20T04:21:30.094Z,15.29
2018-07-20T04:22:30.268Z,15.17
2018-07-20T04:23:30.457Z,15.02
2018-07-20T04:24:30.871Z,15.09
2018-07-20T04:25:30.810Z,15.07
2018-07-20T04:26:30.989Z,15.19
2018-07-20T04:27:31.168Z,15.25
2018-07-20T04:28:31.356Z,15.40
2018-07-20T04:29:31.530Z,15.73
2018-07-20T04:30:31.716Z,16.23
2018-07-20T04:31:31.894Z,16.68
2018-07-20T04:32:32.071Z,17.16
2018-07-20T04:33:32.251Z,17.80
2018-07-20T04:34:32.438Z,18.11
2018-07-20T04:35:32.625Z,18.40
2018-07-20T04:36:32.971Z,18.73
2018-07-20T04:37:32.984Z,18.89
2018-07-20T04:38:33.155Z,19.16
2018-07-20T04:39:33.338Z,19.37
2018-07-20T04:40:33.523Z,19.71
2018-07-20T04:41:33.705Z,19.99
2018-07-20T04:42:33.891Z,20.29
2018-07-20T04:43:34.070Z,20.55
2018-07-20T04:44:34.251Z,20.93
2018-07-20T04:45:34.484Z,21.35
2018-07-20T04:46:34.621Z,21.52
2018-07-20T04:47:34.808Z,21.42
2018-07-20T04:48:35.006Z,21.22
2018-07-20T04:49:35.192Z,21.50
2018-07-20T04:50:35.368Z,21.55
2018-07-20T04:51:35.558Z,21.70
2018-07-20T04:52:35.744Z,21.75
2018-07-20T04:53:35.932Z,21.55
2018-07-20T04:54:36.117Z,21.70
2018-07-20T04:55:36.310Z,21.95
2018-07-20T04:56:36.490Z,21.98
2018-07-20T04:57:36.683Z,22.06
2018-07-20T04:58:36.856Z,22.28
2018-07-20T04:59:37.054Z,22.06
2018-07-20T05:00:37.230Z,22.26
2018-07-20T05:01:37.413Z,21.91
2018-07-20T05:02:37.610Z,21.98
2018-07-20T05:03:37.834Z,21.99
2018-07-20T05:04:37.981Z,22.17
2018-07-20T05:05:38.175Z,22.57
2018-07-20T05:06:38.354Z,22.39
2018-07-20T05:07:38.541Z,22.22
2018-07-20T05:08:38.726Z,22.33
2018-07-20T05:09:38.917Z,22.62
2018-07-20T05:10:39.104Z,22.60
2018-07-20T05:11:39.300Z,22.41
2018-07-20T05:12:39.477Z,22.50
2018-07-20T05:13:39.668Z,22.72
2018-07-20T05:14:39.858Z,23.03
2018-07-20T05:15:40.038Z,22.96
2018-07-20T05:16:40.254Z,23.20
2018-07-20T05:17:40.442Z,23.63
2018-07-20T05:18:40.636Z,23.77
2018-07-20T05:19:40.823Z,23.84
2018-07-20T05:20:41.010Z,23.84
2018-07-20T05:21:41.197Z,23.92
2018-07-20T05:22:41.417Z,23.95
2018-07-20T05:23:41.573Z,23.71
2018-07-20T05:24:41.762Z,24.05
2018-07-20T05:25:41.952Z,24.40
2018-07-20T05:26:42.144Z,24.48
2018-07-20T05:27:42.331Z,24.74
2018-07-20T05:28:42.518Z,24.45
2018-07-20T05:29:42.707Z,24.51
2018-07-20T05:30:42.902Z,24.55
2018-07-20T05:31:43.085Z,24.43
2018-07-20T05:32:43.372Z,24.51
2018-07-20T05:33:43.469Z,24.47
2018-07-20T05:34:43.660Z,24.38
2018-07-20T05:35:43.843Z,24.11
2018-07-20T05:36:44.039Z,24.11
2018-07-20T05:37:44.228Z,23.91
2018-07-20T05:38:44.419Z,23.74
2018-07-20T05:39:44.616Z,24.05
2018-07-20T05:40:44.799Z,24.13
2018-07-20T05:41:44.989Z,24.26
2018-07-20T05:42:45.177Z,24.17
2018-07-20T05:43:45.365Z,24.30
2018-07-20T05:44:45.568Z,23.62
2018-07-20T05:45:45.753Z,23.92
2018-07-20T05:46:45.982Z,24.20
2018-07-20T05:47:46.363Z,24.29
2018-07-20T05:48:46.325Z,24.35
2018-07-20T05:49:46.506Z,24.32
2018-07-20T05:50:46.697Z,24.38
2018-07-20T05:51:46.896Z,24.48
2018-07-20T05:52:47.080Z,24.60
2018-07-20T05:53:47.269Z,24.53
2018-07-20T05:54:47.457Z,24.51
2018-07-20T05:55:47.647Z,24.70
2018-07-20T05:56:47.849Z,24.54
2018-07-20T05:57:48.027Z,24.10
2018-07-20T05:58:48.228Z,24.03
2018-07-20T05:59:48.413Z,24.51
2018-07-20T06:00:48.612Z,25.07
2018-07-20T06:01:48.785Z,25.23
2018-07-20T06:02:48.999Z,25.31
2018-07-20T06:03:49.184Z,24.98
2018-07-20T06:04:49.369Z,24.76
2018-07-20T06:05:50.398Z,24.18
2018-07-20T06:06:49.726Z,24.68
2018-07-20T06:07:49.904Z,24.91
2018-07-20T06:09:50.301Z,25.80
2018-07-20T06:10:50.459Z,25.28
2018-07-20T06:11:50.643Z,25.83
2018-07-20T06:12:50.858Z,25.78
2018-07-20T06:13:51.037Z,25.83
2018-07-20T06:14:51.236Z,26.02
2018-07-20T06:15:51.419Z,26.48
2018-07-20T06:16:51.615Z,25.88
2018-07-20T06:17:51.797Z,26.02
2018-07-20T06:18:51.996Z,26.31
2018-07-20T06:19:52.186Z,26.15
2018-07-20T06:20:52.366Z,25.80
2018-07-20T06:21:52.558Z,25.65
2018-07-20T06:22:53.165Z,26.19
2018-07-20T06:23:53.054Z,26.70
2018-07-20T06:24:53.179Z,26.84
2018-07-20T06:25:53.374Z,26.03
2018-07-20T06:26:53.563Z,25.95
2018-07-20T06:27:53.745Z,26.18
2018-07-20T06:28:53.942Z,26.53
2018-07-20T06:30:54.307Z,26.97
2018-07-20T06:31:54.496Z,26.52
2018-07-20T06:32:54.681Z,26.31
2018-07-20T06:33:54.874Z,26.66
2018-07-20T06:34:55.147Z,26.55
2018-07-20T06:35:55.302Z,26.80
2018-07-20T06:36:55.481Z,27.29
2018-07-20T06:37:55.693Z,27.52
2018-07-20T06:38:55.878Z,27.37
2018-07-20T06:39:56.069Z,26.85
2018-07-20T06:40:56.632Z,27.02
2018-07-20T06:41:56.454Z,26.77
2018-07-20T06:42:56.643Z,27.21
2018-07-20T06:43:56.857Z,27.39
2018-07-20T06:44:57.011Z,27.05
2018-07-20T06:45:57.209Z,27.08
2018-07-20T06:46:57.398Z,27.64
2018-07-20T06:47:57.596Z,28.07
2018-07-20T06:48:57.786Z,28.23
2018-07-20T06:49:57.978Z,28.29
2018-07-20T06:51:58.445Z,28.05
2018-07-20T06:52:58.497Z,25.84
2018-07-20T06:53:58.803Z,26.63
2018-07-20T06:54:58.866Z,26.52
2018-07-20T06:55:59.141Z,26.51
2018-07-20T06:56:59.241Z,27.25
2018-07-20T06:57:59.495Z,26.85
2018-07-20T06:58:59.598Z,28.02
2018-07-20T06:59:59.774Z,28.56
2018-07-20T07:00:59.957Z,28.49
2018-07-20T07:02:00.265Z,28.38
2018-07-20T07:03:00.324Z,28.49
2018-07-20T07:04:00.619Z,27.10
2018-07-20T07:05:00.719Z,27.68
2018-07-20T07:06:00.968Z,27.37
2018-07-20T07:07:03.221Z,27.70
2018-07-20T07:08:01.383Z,27.93
2018-07-20T07:09:03.160Z,28.32
2018-07-20T07:10:01.944Z,28.00
2018-07-20T07:11:02.710Z,28.29
2018-07-20T07:12:02.290Z,27.87
2018-07-20T07:13:02.392Z,27.80
2018-07-20T07:14:02.677Z,27.74
2018-07-20T07:15:02.672Z,28.23
2018-07-20T07:16:03.030Z,27.71
2018-07-20T07:17:03.148Z,26.73
2018-07-20T07:18:03.678Z,27.68
2018-07-20T07:19:05.206Z,27.92
2018-07-20T07:20:04.367Z,28.19
2018-07-20T07:21:05.386Z,28.62
2018-07-20T07:22:08.519Z,29.05
2018-07-20T07:23:04.557Z,28.93
2018-07-20T07:24:06.257Z,29.29
2018-07-20T07:25:05.015Z,29.20
2018-07-20T07:26:05.224Z,29.29
2018-07-20T07:27:05.373Z,29.49
2018-07-20T07:28:05.876Z,29.75
2018-07-20T07:29:06.017Z,29.59
2018-07-20T07:30:07.354Z,29.79
2018-07-20T07:31:06.970Z,29.51
2018-07-20T07:32:09.998Z,29.19
2018-07-20T07:33:23.159Z,29.66
2018-07-20T07:34:06.895Z,30.02
2018-07-20T07:35:06.894Z,29.82
2018-07-20T07:36:06.797Z,29.82
2018-07-20T07:37:06.987Z,29.71
2018-07-20T07:38:07.171Z,28.94
2018-07-20T07:39:07.319Z,29.36
2018-07-20T07:40:07.514Z,29.59
2018-07-20T07:41:07.696Z,29.51
2018-07-20T07:42:07.897Z,29.32
2018-07-20T07:43:08.039Z,29.56
2018-07-20T07:44:08.565Z,29.86
2018-07-20T07:45:08.604Z,29.98
2018-07-20T07:46:08.574Z,30.35
2018-07-20T07:47:08.843Z,30.54
2018-07-20T07:48:08.987Z,30.55
2018-07-20T07:49:09.390Z,30.43
2018-07-20T07:50:09.617Z,30.35
2018-07-20T07:51:10.099Z,30.72
2018-07-20T07:52:12.726Z,31.05
2018-07-20T07:53:11.262Z,30.90
2018-07-20T07:54:13.660Z,31.12
2018-07-20T07:55:22.070Z,31.24
2018-07-20T07:56:45.209Z,31.58
2018-07-20T07:57:16.624Z,31.14
2018-07-20T07:59:13.710Z,31.14
2018-07-20T08:01:15.244Z,30.35
2018-07-20T08:12:45.933Z,31.03
2018-07-20T08:13:45.902Z,31.31
2018-07-20T08:14:49.502Z,31.15
2018-07-20T08:15:47.030Z,31.17
2018-07-20T08:16:46.421Z,31.17
2018-07-20T08:17:46.635Z,31.40
2018-07-20T08:18:46.824Z,31.51
2018-07-20T08:19:46.983Z,31.78
2018-07-20T08:20:47.168Z,31.66
2018-07-20T08:21:47.384Z,31.44
2018-07-20T08:22:48.640Z,31.20
2018-07-20T08:23:50.084Z,31.07
2018-07-20T08:24:49.410Z,31.62
2018-07-20T08:25:48.229Z,31.99
2018-07-20T08:26:50.564Z,31.92
2018-07-20T08:27:48.620Z,31.90
2018-07-20T08:28:50.204Z,31.03
2018-07-20T08:29:48.992Z,31.37
2018-07-20T08:30:49.165Z,31.43
2018-07-20T08:31:49.802Z,31.44
2018-07-20T08:32:50.995Z,31.14
2018-07-20T08:33:49.823Z,31.14
2018-07-20T08:34:50.005Z,31.36
2018-07-20T08:35:50.156Z,31.37
2018-07-20T08:36:50.356Z,30.85
2018-07-20T08:37:51.882Z,31.05
2018-07-20T08:38:50.715Z,31.40
2018-07-20T08:39:50.872Z,31.56
2018-07-20T08:40:51.061Z,31.58
2018-07-20T08:41:51.225Z,31.76
2018-07-20T08:42:51.577Z,31.87
2018-07-20T08:43:52.702Z,32.14
2018-07-20T08:44:52.544Z,31.99
2018-07-20T08:45:54.007Z,31.77
2018-07-20T08:46:52.984Z,32.09
2018-07-20T08:47:54.058Z,31.94
2018-07-20T08:48:53.513Z,32.11
2018-07-20T08:49:54.865Z,32.16
2018-07-20T08:50:54.260Z,32.23
2018-07-20T08:51:53.353Z,32.30
2018-07-20T08:52:53.478Z,32.26
2018-07-20T08:53:53.730Z,32.45
2018-07-20T08:54:54.131Z,32.51
2018-07-20T08:55:55.325Z,32.58
2018-07-20T08:56:54.404Z,32.60
2018-07-20T08:57:54.540Z,32.71
2018-07-20T08:58:54.531Z,32.52
2018-07-20T08:59:57.124Z,32.27
2018-07-20T09:00:54.942Z,32.56
2018-07-20T09:01:55.102Z,32.97
2018-07-20T09:02:55.347Z,32.53
2018-07-20T09:03:55.544Z,32.82
2018-07-20T09:04:55.855Z,32.78
2018-07-20T09:05:56.124Z,32.97
2018-07-20T09:06:56.663Z,33.31
2018-07-20T09:07:56.424Z,33.49
2018-07-20T09:08:56.609Z,33.58
2018-07-20T09:09:56.912Z,33.59
2018-07-20T09:10:56.990Z,33.81
2018-07-20T09:11:57.174Z,33.77
2018-07-20T09:12:57.723Z,33.67
2018-07-20T09:13:57.676Z,33.49
2018-07-20T09:14:57.746Z,33.46
2018-07-20T09:15:57.955Z,33.65
2018-07-20T09:16:58.180Z,32.80
2018-07-20T09:17:58.340Z,32.70
2018-07-20T09:18:58.615Z,32.85
2018-07-20T09:19:58.829Z,32.75
2018-07-20T09:20:59.019Z,33.00
2018-07-20T09:21:59.099Z,33.04
2018-07-20T09:22:59.452Z,32.75
2018-07-20T09:23:59.679Z,32.96
2018-07-20T09:24:59.771Z,32.73
2018-07-20T09:25:59.974Z,32.51
2018-07-20T09:27:00.128Z,32.82
2018-07-20T09:28:00.297Z,31.97
2018-07-20T09:29:00.504Z,31.93
2018-07-20T09:30:00.710Z,31.84
2018-07-20T09:31:01.150Z,31.99
2018-07-20T09:32:02.316Z,31.93
2018-07-20T09:33:01.254Z,32.37
2018-07-20T09:34:01.495Z,32.36
2018-07-20T09:35:02.175Z,32.33
2018-07-20T09:36:01.826Z,30.88
2018-07-20T09:37:02.079Z,31.20
2018-07-20T09:38:02.266Z,31.09
2018-07-20T09:39:02.381Z,31.07
2018-07-20T09:40:02.586Z,31.36
2018-07-20T09:41:02.873Z,31.28
2018-07-20T09:42:03.049Z,31.56
2018-07-20T09:43:03.439Z,31.96
2018-07-20T09:44:03.391Z,32.26
2018-07-20T09:45:03.542Z,32.70
2018-07-20T09:46:03.757Z,33.23
2018-07-20T09:47:03.990Z,33.11
2018-07-20T09:48:04.097Z,33.22
2018-07-20T09:49:04.522Z,33.09
2018-07-20T09:50:04.549Z,33.08
2018-07-20T09:51:04.665Z,33.01
2018-07-20T09:52:04.841Z,33.34
2018-07-20T09:53:05.096Z,33.28
2018-07-20T09:54:05.330Z,33.42
2018-07-20T09:55:06.359Z,33.57
2018-07-20T09:56:05.730Z,33.64
2018-07-20T09:57:05.818Z,33.24
2018-07-20T09:58:06.313Z,33.17
2018-07-20T09:59:06.186Z,33.12
2018-07-20T10:00:08.281Z,33.40
2018-07-20T10:01:08.079Z,33.22
2018-07-20T10:02:08.641Z,33.46
2018-07-20T10:03:07.079Z,33.28
2018-07-20T10:04:07.628Z,33.49
2018-07-20T10:05:07.793Z,33.11
2018-07-20T10:06:08.366Z,32.52
2018-07-20T10:07:07.710Z,32.33
2018-07-20T10:08:07.883Z,32.31
2018-07-20T10:09:08.040Z,32.38
2018-07-20T10:10:08.259Z,32.43
2018-07-20T10:11:08.451Z,32.78
2018-07-20T10:12:08.651Z,33.02
2018-07-20T10:13:08.851Z,33.14
2018-07-20T10:14:09.016Z,33.12
2018-07-20T10:15:09.193Z,33.36
2018-07-20T10:16:09.404Z,33.50
2018-07-20T10:17:09.551Z,33.23
2018-07-20T10:18:09.798Z,33.47
2018-07-20T10:19:10.056Z,33.07
2018-07-20T10:21:10.365Z,31.89
2018-07-20T10:22:10.537Z,31.73
2018-07-20T10:23:10.723Z,32.14
2018-07-20T10:24:10.906Z,32.11
2018-07-20T10:25:11.086Z,32.37
2018-07-20T10:26:11.272Z,32.27
2018-07-20T10:27:11.453Z,32.22
2018-07-20T10:28:11.637Z,32.46
2018-07-20T10:29:11.822Z,32.77
2018-07-20T10:30:12.012Z,31.54
2018-07-20T10:31:12.195Z,31.89
2018-07-20T10:32:12.424Z,32.08
2018-07-20T10:33:12.588Z,32.04
2018-07-20T10:34:12.764Z,32.03
2018-07-20T10:35:12.940Z,32.14
2018-07-20T10:36:13.137Z,32.01
2018-07-20T10:37:13.301Z,32.22
2018-07-20T10:38:13.513Z,32.48
2018-07-20T10:39:13.678Z,32.86
2018-07-20T10:40:13.857Z,32.77
2018-07-20T10:41:14.038Z,32.93
2018-07-20T10:42:14.243Z,33.11
2018-07-20T10:43:14.457Z,33.09
2018-07-20T10:44:14.585Z,32.89
2018-07-20T10:45:14.773Z,32.80
2018-07-20T10:46:14.967Z,32.78
2018-07-20T10:47:15.168Z,32.89
2018-07-20T10:48:15.352Z,32.70
2018-07-20T10:49:15.536Z,32.64
2018-07-20T10:50:15.723Z,32.53
2018-07-20T10:51:15.909Z,32.46
2018-07-20T10:52:16.099Z,32.73
2018-07-20T10:53:16.289Z,31.96
2018-07-20T10:54:16.484Z,31.97
2018-07-20T10:55:16.686Z,32.21
2018-07-20T10:56:16.887Z,32.29
2018-07-20T10:57:17.065Z,32.38
2018-07-20T10:58:17.249Z,32.51
2018-07-20T10:59:17.425Z,31.96
2018-07-20T11:00:17.601Z,32.11
2018-07-20T11:01:17.820Z,32.22
2018-07-20T11:02:17.982Z,32.26
2018-07-20T11:03:18.168Z,32.48
2018-07-20T11:04:18.341Z,32.04
2018-07-20T11:05:18.545Z,32.00
2018-07-20T11:06:18.707Z,32.15
2018-07-20T11:07:18.914Z,32.30
2018-07-20T11:08:19.073Z,32.26
2018-07-20T11:09:19.267Z,32.26
2018-07-20T11:10:19.470Z,32.21
2018-07-20T11:11:19.619Z,32.22
2018-07-20T11:12:19.813Z,32.33
2018-07-20T11:13:20.007Z,32.26
2018-07-20T11:14:20.169Z,32.21
2018-07-20T11:15:20.350Z,31.96
2018-07-20T11:16:20.553Z,31.80
2018-07-20T11:17:20.743Z,31.78
2018-07-20T11:18:20.932Z,31.77
2018-07-20T11:19:21.101Z,31.74
2018-07-20T11:20:21.342Z,31.89
2018-07-20T11:21:21.484Z,31.84
2018-07-20T11:22:21.681Z,31.71
2018-07-20T11:23:21.835Z,31.97
2018-07-20T11:24:22.035Z,32.15
2018-07-20T11:25:22.207Z,31.84
2018-07-20T11:26:22.427Z,32.27
2018-07-20T11:27:22.585Z,32.21
2018-07-20T11:28:22.780Z,32.37
2018-07-20T11:29:22.921Z,32.22
2018-07-20T11:30:23.115Z,32.12
2018-07-20T11:31:23.296Z,32.34
2018-07-20T11:32:23.491Z,32.21
2018-07-20T11:33:23.683Z,32.22
2018-07-20T11:34:23.847Z,32.26
2018-07-20T11:35:24.025Z,32.33
2018-07-20T11:36:24.601Z,32.52
2018-07-20T11:37:24.411Z,32.70
2018-07-20T11:38:24.597Z,32.63
2018-07-20T11:39:24.776Z,32.70
2018-07-20T11:40:24.975Z,32.52
2018-07-20T11:41:25.186Z,32.31
2018-07-20T11:42:25.373Z,32.33
2018-07-20T11:43:25.556Z,32.48
2018-07-20T11:44:25.744Z,32.53
2018-07-20T11:45:25.934Z,32.60
2018-07-20T11:46:26.145Z,32.71
2018-07-20T11:47:26.307Z,32.43
2018-07-20T11:48:26.491Z,32.46
2018-07-20T11:49:26.686Z,32.38
2018-07-20T11:50:26.865Z,32.34
2018-07-20T11:51:27.054Z,32.27
2018-07-20T11:52:27.234Z,31.93
2018-07-20T11:53:27.414Z,31.94
2018-07-20T11:54:27.608Z,31.61
2018-07-20T11:55:27.792Z,31.69
2018-07-20T11:56:27.979Z,31.71
2018-07-20T11:57:28.430Z,31.14
2018-07-20T11:58:28.366Z,31.02
2018-07-20T11:59:28.523Z,31.28
2018-07-20T12:00:28.755Z,31.29
2018-07-20T12:01:28.897Z,31.05
2018-07-20T12:02:29.080Z,31.14
2018-07-20T12:03:29.260Z,31.25
2018-07-20T12:04:29.444Z,30.83
2018-07-20T12:05:29.636Z,30.55
2018-07-20T12:06:29.826Z,31.03
2018-07-20T12:07:30.012Z,31.21
2018-07-20T12:08:30.183Z,31.36
2018-07-20T12:09:30.382Z,30.65
2018-07-20T12:10:30.570Z,30.23
2018-07-20T12:11:30.738Z,30.30
2018-07-20T12:12:30.976Z,30.25
2018-07-20T12:13:31.148Z,30.59
2018-07-20T12:14:31.337Z,30.72
2018-07-20T12:15:31.506Z,30.59
2018-07-20T12:16:31.683Z,30.30
2018-07-20T12:17:31.858Z,30.46
2018-07-20T12:18:32.045Z,30.70
2018-07-20T12:19:32.251Z,30.99
2018-07-20T12:20:32.432Z,31.27
2018-07-20T12:21:32.625Z,31.29
2018-07-20T12:22:32.826Z,31.28
2018-07-20T12:23:33.008Z,30.96
2018-07-20T12:24:33.175Z,30.25
2018-07-20T12:25:33.364Z,30.19
2018-07-20T12:26:33.574Z,30.61
2018-07-20T12:27:33.712Z,30.75
2018-07-20T12:28:33.923Z,31.15
2018-07-20T12:29:34.080Z,31.34
2018-07-20T12:30:34.253Z,31.55
2018-07-20T12:31:34.440Z,31.62
2018-07-20T12:32:34.617Z,31.61
2018-07-20T12:33:34.811Z,31.64
2018-07-20T12:34:35.002Z,31.24
2018-07-20T12:35:35.173Z,31.42
2018-07-20T12:36:35.365Z,31.43
2018-07-20T12:37:35.552Z,31.51
2018-07-20T12:38:35.749Z,31.64
2018-07-20T12:39:35.931Z,31.74
2018-07-20T12:40:36.121Z,31.85
2018-07-20T12:41:36.312Z,31.94
2018-07-20T12:42:36.544Z,32.01
2018-07-20T12:43:36.666Z,31.92
2018-07-20T12:44:36.856Z,31.76
2018-07-20T12:45:37.030Z,31.70
2018-07-20T12:46:37.268Z,31.71
2018-07-20T12:47:37.404Z,31.81
2018-07-20T12:48:37.603Z,31.85
2018-07-20T12:49:37.779Z,31.97
2018-07-20T12:50:37.966Z,31.93
2018-07-20T12:51:38.150Z,32.01
2018-07-20T12:52:38.344Z,32.14
2018-07-20T12:53:38.527Z,32.19
2018-07-20T12:54:38.706Z,32.27
2018-07-20T12:55:38.911Z,32.04
2018-07-20T12:56:39.066Z,31.81
2018-07-20T12:57:39.268Z,31.81
2018-07-20T12:58:39.524Z,32.12
2018-07-20T12:59:39.864Z,31.80
2018-07-20T13:00:39.815Z,31.59
2018-07-20T13:01:39.998Z,31.07
2018-07-20T13:02:40.190Z,30.94
2018-07-20T13:03:40.356Z,30.80
2018-07-20T13:04:40.560Z,30.53
2018-07-20T13:05:40.743Z,30.32
2018-07-20T13:06:41.171Z,30.48
2018-07-20T13:07:41.105Z,30.66
2018-07-20T13:08:41.302Z,30.87
2018-07-20T13:09:41.485Z,31.14
2018-07-20T13:10:41.674Z,31.42
2018-07-20T13:11:41.858Z,31.61
2018-07-20T13:12:42.049Z,31.64
2018-07-20T13:13:42.238Z,31.46